sensor_id;sensor_type;location;lat;lon;timestamp;P1;durP1;ratioP1;P2;durP2;ratioP2
16430;SDS011;8325;49.284;7.238;2023-04-25T04:04:28;10.00;;;6.47;;
16430;SDS011;8325;49.284;7.238;2023-04-25T04:08:40;11.60;;;5.25;;
16430;SDS011;8325;49.284;7.238;2023-04-25T04:12:53;9.18;;;5.93;;
16430;SDS011;8325;49.284;7.238;2023-04-25T04:17:05;9.00;;;5.78;;
16430;SDS011;8325;49.284;7.238;2023-04-25T04:21:17;9.95;;;6.95;;
16430;SDS011;8325;49.284;7.238;2023-04-25T04:25:29;9.98;;;6.63;;
16430;SDS011;8325;49.284;7.238;2023-04-25T04:30:16;10.20;;;6.97;;
16430;SDS011;8325;49.284;7.238;2023-04-25T04:34:37;10.10;;;6.90;;
16430;SDS011;8325;49.284;7.238;2023-04-25T04:38:50;14.07;;;9.63;;
16430;SDS011;8325;49.284;7.238;2023-04-25T04:43:14;14.10;;;10.32;;
16430;SDS011;8325;49.284;7.238;2023-04-25T04:47:46;21.40;;;14.35;;
16430;SDS011;8325;49.284;7.238;2023-04-25T04:52:18;22.40;;;14.73;;
16430;SDS011;8325;49.284;7.238;2023-04-25T04:56:40;16.30;;;11.05;;
16430;SDS011;8325;49.284;7.238;2023-04-25T05:01:12;11.65;;;8.43;;
16430;SDS011;8325;49.284;7.238;2023-04-25T05:05:43;12.15;;;8.70;;
16430;SDS011;8325;49.284;7.238;2023-04-25T05:10:30;15.60;;;8.13;;
16430;SDS011;8325;49.284;7.238;2023-04-25T05:14:49;12.77;;;8.40;;
16430;SDS011;8325;49.284;7.238;2023-04-25T05:19:21;11.60;;;8.10;;
16430;SDS011;8325;49.284;7.238;2023-04-25T05:23:59;14.18;;;9.23;;
16430;SDS011;8325;49.284;7.238;2023-04-25T05:28:46;15.35;;;9.85;;
16430;SDS011;8325;49.284;7.238;2023-04-25T05:33:24;11.55;;;7.55;;
16430;SDS011;8325;49.284;7.238;2023-04-25T05:37:36;12.32;;;7.70;;
16430;SDS011;8325;49.284;7.238;2023-04-25T05:41:53;15.55;;;9.48;;
16430;SDS011;8325;49.284;7.238;2023-04-25T05:46:28;13.13;;;8.60;;
16430;SDS011;8325;49.284;7.238;2023-04-25T05:50:59;15.18;;;8.90;;
16430;SDS011;8325;49.284;7.238;2023-04-25T05:55:30;10.80;;;7.90;;
16430;SDS011;8325;49.284;7.238;2023-04-25T05:59:44;13.90;;;7.90;;
16430;SDS011;8325;49.284;7.238;2023-04-25T06:03:58;11.13;;;8.05;;
16430;SDS011;8325;49.284;7.238;2023-04-25T06:08:10;14.73;;;8.43;;
16430;SDS011;8325;49.284;7.238;2023-04-25T06:12:22;12.90;;;8.23;;
16430;SDS011;8325;49.284;7.238;2023-04-25T06:16:35;16.73;;;11.10;;
16430;SDS011;8325;49.284;7.238;2023-04-25T06:20:47;15.20;;;10.13;;
16430;SDS011;8325;49.284;7.238;2023-04-25T06:25:00;26.25;;;14.80;;
16430;SDS011;8325;49.284;7.238;2023-04-25T06:29:12;31.92;;;18.00;;
16430;SDS011;8325;49.284;7.238;2023-04-25T06:33:24;45.05;;;23.13;;
16430;SDS011;8325;49.284;7.238;2023-04-25T06:37:38;16.45;;;10.32;;
16430;SDS011;8325;49.284;7.238;2023-04-25T06:41:49;15.18;;;9.23;;
16430;SDS011;8325;49.284;7.238;2023-04-25T06:46:23;16.13;;;9.90;;
16430;SDS011;8325;49.284;7.238;2023-04-25T06:50:36;14.43;;;9.35;;
16430;SDS011;8325;49.284;7.238;2023-04-25T06:54:47;13.10;;;8.95;;
16430;SDS011;8325;49.284;7.238;2023-04-25T06:59:07;15.95;;;9.77;;
16430;SDS011;8325;49.284;7.238;2023-04-25T07:03:21;12.38;;;8.13;;
16430;SDS011;8325;49.284;7.238;2023-04-25T07:07:35;14.18;;;8.85;;
16430;SDS011;8325;49.284;7.238;2023-04-25T07:11:46;13.48;;;9.32;;
16430;SDS011;8325;49.284;7.238;2023-04-25T07:15:59;15.68;;;9.50;;
16430;SDS011;8325;49.284;7.238;2023-04-25T07:20:12;12.93;;;8.80;;
16430;SDS011;8325;49.284;7.238;2023-04-25T07:24:24;13.32;;;8.43;;
16430;SDS011;8325;49.284;7.238;2023-04-25T07:28:38;14.55;;;9.15;;
16430;SDS011;8325;49.284;7.238;2023-04-25T07:32:50;14.23;;;8.82;;
16430;SDS011;8325;49.284;7.238;2023-04-25T07:37:02;13.90;;;8.95;;
16430;SDS011;8325;49.284;7.238;2023-04-25T07:41:23;13.30;;;8.13;;
16430;SDS011;8325;49.284;7.238;2023-04-25T07:45:34;14.07;;;8.10;;
16430;SDS011;8325;49.284;7.238;2023-04-25T07:49:47;11.68;;;8.13;;
16430;SDS011;8325;49.284;7.238;2023-04-25T07:53:59;12.25;;;8.70;;
16430;SDS011;8325;49.284;7.238;2023-04-25T07:58:12;11.90;;;8.25;;
16430;SDS011;8325;49.284;7.238;2023-04-25T08:02:26;10.95;;;7.63;;
16430;SDS011;8325;49.284;7.238;2023-04-25T08:06:39;11.38;;;7.72;;
16430;SDS011;8325;49.284;7.238;2023-04-25T08:10:57;11.93;;;8.38;;
16430;SDS011;8325;49.284;7.238;2023-04-25T08:15:10;12.63;;;8.07;;
16430;SDS011;8325;49.284;7.238;2023-04-25T08:19:23;11.90;;;8.20;;
16430;SDS011;8325;49.284;7.238;2023-04-25T08:23:36;13.88;;;7.43;;
16430;SDS011;8325;49.284;7.238;2023-04-25T08:27:53;8.68;;;6.43;;
16430;SDS011;8325;49.284;7.238;2023-04-25T08:32:06;9.07;;;6.72;;
16430;SDS011;8325;49.284;7.238;2023-04-25T08:36:22;7.53;;;6.13;;
16430;SDS011;8325;49.284;7.238;2023-04-25T08:40:58;6.72;;;5.68;;
16430;SDS011;8325;49.284;7.238;2023-04-25T08:45:11;6.28;;;5.07;;
16430;SDS011;8325;49.284;7.238;2023-04-25T08:49:25;7.38;;;5.80;;
16430;SDS011;8325;49.284;7.238;2023-04-25T08:53:37;8.70;;;5.43;;
16430;SDS011;8325;49.284;7.238;2023-04-25T08:57:53;9.05;;;6.40;;
16430;SDS011;8325;49.284;7.238;2023-04-25T09:02:06;7.90;;;5.72;;
16430;SDS011;8325;49.284;7.238;2023-04-25T09:06:19;6.32;;;4.82;;
16430;SDS011;8325;49.284;7.238;2023-04-25T09:10:33;5.65;;;4.75;;
16430;SDS011;8325;49.284;7.238;2023-04-25T09:15:02;5.05;;;3.83;;
16430;SDS011;8325;49.284;7.238;2023-04-25T09:19:49;5.10;;;3.83;;
16430;SDS011;8325;49.284;7.238;2023-04-25T09:24:07;3.45;;;2.70;;
16430;SDS011;8325;49.284;7.238;2023-04-25T09:28:23;4.50;;;3.55;;
16430;SDS011;8325;49.284;7.238;2023-04-25T09:32:43;4.75;;;3.35;;
16430;SDS011;8325;49.284;7.238;2023-04-25T09:36:55;4.15;;;3.42;;
16430;SDS011;8325;49.284;7.238;2023-04-25T09:41:42;4.53;;;3.15;;
16430;SDS011;8325;49.284;7.238;2023-04-25T09:45:54;3.92;;;2.75;;
16430;SDS011;8325;49.284;7.238;2023-04-25T09:50:13;3.58;;;2.78;;
16430;SDS011;8325;49.284;7.238;2023-04-25T09:54:30;5.07;;;3.00;;
16430;SDS011;8325;49.284;7.238;2023-04-25T09:58:49;3.33;;;2.70;;
16430;SDS011;8325;49.284;7.238;2023-04-25T10:03:05;2.78;;;2.55;;
16430;SDS011;8325;49.284;7.238;2023-04-25T10:07:35;3.33;;;2.47;;
16430;SDS011;8325;49.284;7.238;2023-04-25T10:11:53;4.13;;;3.10;;
16430;SDS011;8325;49.284;7.238;2023-04-25T10:16:05;4.80;;;3.40;;
16430;SDS011;8325;49.284;7.238;2023-04-25T10:20:17;4.88;;;3.20;;
16430;SDS011;8325;49.284;7.238;2023-04-25T10:24:29;5.82;;;3.92;;
16430;SDS011;8325;49.284;7.238;2023-04-25T10:33:16;6.22;;;4.25;;
16430;SDS011;8325;49.284;7.238;2023-04-25T10:37:29;7.90;;;4.05;;
16430;SDS011;8325;49.284;7.238;2023-04-25T10:41:48;5.13;;;4.22;;
16430;SDS011;8325;49.284;7.238;2023-04-25T10:50:38;6.05;;;3.95;;
16430;SDS011;8325;49.284;7.238;2023-04-25T10:54:51;7.47;;;5.63;;
16430;SDS011;8325;49.284;7.238;2023-04-25T10:59:08;6.72;;;4.90;;
16430;SDS011;8325;49.284;7.238;2023-04-25T11:03:24;6.88;;;5.28;;
16430;SDS011;8325;49.284;7.238;2023-04-25T11:07:49;11.02;;;5.47;;
16430;SDS011;8325;49.284;7.238;2023-04-25T11:12:17;6.63;;;4.78;;
16430;SDS011;8325;49.284;7.238;2023-04-25T11:16:29;6.80;;;5.28;;
16430;SDS011;8325;49.284;7.238;2023-04-25T11:20:43;8.55;;;5.35;;
16430;SDS011;8325;49.284;7.238;2023-04-25T11:24:54;6.25;;;4.97;;
16430;SDS011;8325;49.284;7.238;2023-04-25T11:29:06;6.55;;;4.65;;
16430;SDS011;8325;49.284;7.238;2023-04-25T11:33:17;8.20;;;5.07;;
16430;SDS011;8325;49.284;7.238;2023-04-25T11:37:29;7.28;;;5.28;;
16430;SDS011;8325;49.284;7.238;2023-04-25T11:41:41;6.32;;;4.78;;
16430;SDS011;8325;49.284;7.238;2023-04-25T11:45:56;6.35;;;4.30;;
16430;SDS011;8325;49.284;7.238;2023-04-25T11:50:07;6.32;;;4.95;;
16430;SDS011;8325;49.284;7.238;2023-04-25T11:54:19;6.22;;;4.60;;
16430;SDS011;8325;49.284;7.238;2023-04-25T11:58:31;6.88;;;4.60;;
16430;SDS011;8325;49.284;7.238;2023-04-25T12:02:43;6.88;;;5.18;;
16430;SDS011;8325;49.284;7.238;2023-04-25T12:06:56;6.03;;;4.88;;
16430;SDS011;8325;49.284;7.238;2023-04-25T12:11:19;6.53;;;4.18;;
16430;SDS011;8325;49.284;7.238;2023-04-25T12:15:33;5.88;;;4.32;;
16430;SDS011;8325;49.284;7.238;2023-04-25T12:19:46;6.43;;;4.00;;
16430;SDS011;8325;49.284;7.238;2023-04-25T12:28:25;6.13;;;3.58;;
16430;SDS011;8325;49.284;7.238;2023-04-25T12:32:39;5.50;;;3.55;;
16430;SDS011;8325;49.284;7.238;2023-04-25T12:36:51;8.73;;;4.68;;
16430;SDS011;8325;49.284;7.238;2023-04-25T12:41:03;4.78;;;3.60;;
16430;SDS011;8325;49.284;7.238;2023-04-25T12:45:14;5.20;;;3.38;;
16430;SDS011;8325;49.284;7.238;2023-04-25T12:49:26;9.52;;;5.30;;
16430;SDS011;8325;49.284;7.238;2023-04-25T12:53:37;6.82;;;5.95;;
16430;SDS011;8325;49.284;7.238;2023-04-25T12:57:51;7.25;;;6.50;;
16430;SDS011;8325;49.284;7.238;2023-04-25T13:02:03;10.50;;;8.63;;
16430;SDS011;8325;49.284;7.238;2023-04-25T13:06:15;11.73;;;7.97;;
16430;SDS011;8325;49.284;7.238;2023-04-25T13:10:27;4.63;;;2.83;;
16430;SDS011;8325;49.284;7.238;2023-04-25T13:14:39;4.55;;;3.50;;
16430;SDS011;8325;49.284;7.238;2023-04-25T13:18:51;5.18;;;2.92;;
16430;SDS011;8325;49.284;7.238;2023-04-25T13:23:02;3.97;;;2.75;;
16430;SDS011;8325;49.284;7.238;2023-04-25T13:27:14;4.10;;;3.03;;
16430;SDS011;8325;49.284;7.238;2023-04-25T13:31:25;4.15;;;2.88;;
16430;SDS011;8325;49.284;7.238;2023-04-25T13:35:37;3.83;;;2.97;;
16430;SDS011;8325;49.284;7.238;2023-04-25T13:39:49;3.17;;;2.70;;
16430;SDS011;8325;49.284;7.238;2023-04-25T13:44:02;4.20;;;3.00;;
16430;SDS011;8325;49.284;7.238;2023-04-25T13:48:13;4.60;;;3.30;;
16430;SDS011;8325;49.284;7.238;2023-04-25T13:52:25;8.27;;;3.00;;
16430;SDS011;8325;49.284;7.238;2023-04-25T13:56:37;4.07;;;2.88;;
16430;SDS011;8325;49.284;7.238;2023-04-25T14:00:49;3.40;;;2.42;;
16430;SDS011;8325;49.284;7.238;2023-04-25T14:05:01;3.05;;;2.05;;
16430;SDS011;8325;49.284;7.238;2023-04-25T14:09:14;4.88;;;3.78;;
16430;SDS011;8325;49.284;7.238;2023-04-25T14:13:26;2.88;;;2.20;;
16430;SDS011;8325;49.284;7.238;2023-04-25T14:17:41;3.55;;;2.33;;
16430;SDS011;8325;49.284;7.238;2023-04-25T14:21:53;3.22;;;2.47;;
16430;SDS011;8325;49.284;7.238;2023-04-25T14:26:05;2.50;;;2.17;;
16430;SDS011;8325;49.284;7.238;2023-04-25T14:30:18;2.88;;;2.40;;
16430;SDS011;8325;49.284;7.238;2023-04-25T14:34:31;4.15;;;2.13;;
16430;SDS011;8325;49.284;7.238;2023-04-25T14:38:42;6.15;;;4.72;;
16430;SDS011;8325;49.284;7.238;2023-04-25T14:42:54;3.50;;;2.20;;
16430;SDS011;8325;49.284;7.238;2023-04-25T14:47:08;2.78;;;2.22;;
16430;SDS011;8325;49.284;7.238;2023-04-25T14:51:20;3.97;;;2.42;;
16430;SDS011;8325;49.284;7.238;2023-04-25T14:55:32;10.20;;;7.13;;
16430;SDS011;8325;49.284;7.238;2023-04-25T14:59:43;4.43;;;2.42;;
16430;SDS011;8325;49.284;7.238;2023-04-25T15:03:58;7.95;;;5.00;;
16430;SDS011;8325;49.284;7.238;2023-04-25T15:08:16;8.27;;;6.07;;
16430;SDS011;8325;49.284;7.238;2023-04-25T15:12:47;4.25;;;2.25;;
16430;SDS011;8325;49.284;7.238;2023-04-25T15:17:09;3.17;;;2.05;;
16430;SDS011;8325;49.284;7.238;2023-04-25T15:21:29;2.97;;;2.15;;
16430;SDS011;8325;49.284;7.238;2023-04-25T15:25:50;2.78;;;2.40;;
16430;SDS011;8325;49.284;7.238;2023-04-25T15:30:10;2.80;;;2.00;;
16430;SDS011;8325;49.284;7.238;2023-04-25T15:34:25;2.53;;;2.03;;
16430;SDS011;8325;49.284;7.238;2023-04-25T15:39:00;6.10;;;2.58;;
16430;SDS011;8325;49.284;7.238;2023-04-25T15:43:24;2.72;;;2.10;;
16430;SDS011;8325;49.284;7.238;2023-04-25T15:47:36;2.42;;;1.80;;
16430;SDS011;8325;49.284;7.238;2023-04-25T15:56:45;2.90;;;2.10;;
16430;SDS011;8325;49.284;7.238;2023-04-25T16:01:10;3.97;;;2.70;;
16430;SDS011;8325;49.284;7.238;2023-04-25T16:05:22;5.10;;;2.60;;
16430;SDS011;8325;49.284;7.238;2023-04-25T16:09:34;3.47;;;2.60;;
16430;SDS011;8325;49.284;7.238;2023-04-25T16:13:46;5.03;;;2.25;;
16430;SDS011;8325;49.284;7.238;2023-04-25T16:17:58;2.50;;;2.25;;
16430;SDS011;8325;49.284;7.238;2023-04-25T16:22:09;4.78;;;2.85;;
16430;SDS011;8325;49.284;7.238;2023-04-25T16:26:23;2.95;;;2.40;;
16430;SDS011;8325;49.284;7.238;2023-04-25T16:30:34;3.28;;;2.20;;
16430;SDS011;8325;49.284;7.238;2023-04-25T16:34:46;3.35;;;2.35;;
16430;SDS011;8325;49.284;7.238;2023-04-25T16:38:58;3.08;;;2.25;;
16430;SDS011;8325;49.284;7.238;2023-04-25T16:43:11;3.67;;;2.38;;
16430;SDS011;8325;49.284;7.238;2023-04-25T16:47:22;2.90;;;2.38;;
16430;SDS011;8325;49.284;7.238;2023-04-25T16:51:35;5.30;;;2.65;;
16430;SDS011;8325;49.284;7.238;2023-04-25T16:55:47;3.33;;;2.75;;
16430;SDS011;8325;49.284;7.238;2023-04-25T16:59:58;5.53;;;2.95;;
16430;SDS011;8325;49.284;7.238;2023-04-25T17:04:10;3.88;;;2.30;;
16430;SDS011;8325;49.284;7.238;2023-04-25T17:08:22;4.53;;;2.25;;
16430;SDS011;8325;49.284;7.238;2023-04-25T17:12:34;4.40;;;2.38;;
16430;SDS011;8325;49.284;7.238;2023-04-25T17:16:45;3.00;;;2.30;;
16430;SDS011;8325;49.284;7.238;2023-04-25T17:20:57;4.80;;;2.70;;
16430;SDS011;8325;49.284;7.238;2023-04-25T17:25:09;4.82;;;3.67;;
16430;SDS011;8325;49.284;7.238;2023-04-25T17:29:21;6.53;;;3.28;;
16430;SDS011;8325;49.284;7.238;2023-04-25T17:33:33;5.20;;;3.30;;
16430;SDS011;8325;49.284;7.238;2023-04-25T17:37:45;6.25;;;3.78;;
16430;SDS011;8325;49.284;7.238;2023-04-25T17:41:56;7.10;;;3.97;;
16430;SDS011;8325;49.284;7.238;2023-04-25T17:46:11;7.40;;;3.35;;
16430;SDS011;8325;49.284;7.238;2023-04-25T17:50:22;5.63;;;3.20;;
16430;SDS011;8325;49.284;7.238;2023-04-25T17:54:34;3.92;;;2.53;;
16430;SDS011;8325;49.284;7.238;2023-04-25T17:58:46;6.28;;;2.97;;
16430;SDS011;8325;49.284;7.238;2023-04-25T18:02:57;4.50;;;2.67;;
16430;SDS011;8325;49.284;7.238;2023-04-25T18:07:09;6.20;;;3.38;;
16430;SDS011;8325;49.284;7.238;2023-04-25T18:11:21;9.85;;;6.05;;
16430;SDS011;8325;49.284;7.238;2023-04-25T18:15:33;6.43;;;4.60;;
16430;SDS011;8325;49.284;7.238;2023-04-25T18:19:45;28.35;;;15.35;;
16430;SDS011;8325;49.284;7.238;2023-04-25T18:23:56;10.90;;;5.90;;
16430;SDS011;8325;49.284;7.238;2023-04-25T18:28:08;5.38;;;3.30;;
16430;SDS011;8325;49.284;7.238;2023-04-25T18:32:19;6.25;;;3.50;;
16430;SDS011;8325;49.284;7.238;2023-04-25T18:36:31;7.72;;;5.10;;
16430;SDS011;8325;49.284;7.238;2023-04-25T18:40:43;6.60;;;4.72;;
16430;SDS011;8325;49.284;7.238;2023-04-25T18:45:10;4.18;;;3.00;;
16430;SDS011;8325;49.284;7.238;2023-04-25T18:49:22;3.28;;;2.80;;
16430;SDS011;8325;49.284;7.238;2023-04-25T18:53:33;4.38;;;2.33;;
16430;SDS011;8325;49.284;7.238;2023-04-25T18:57:45;3.72;;;2.40;;
16430;SDS011;8325;49.284;7.238;2023-04-25T19:01:56;5.18;;;2.55;;
16430;SDS011;8325;49.284;7.238;2023-04-25T19:06:08;5.63;;;2.83;;
16430;SDS011;8325;49.284;7.238;2023-04-25T19:10:20;3.67;;;2.47;;
16430;SDS011;8325;49.284;7.238;2023-04-25T19:14:32;4.97;;;2.50;;
16430;SDS011;8325;49.284;7.238;2023-04-25T19:18:45;4.50;;;2.90;;
16430;SDS011;8325;49.284;7.238;2023-04-25T19:22:57;6.07;;;3.38;;
16430;SDS011;8325;49.284;7.238;2023-04-25T19:27:08;11.55;;;7.55;;
16430;SDS011;8325;49.284;7.238;2023-04-25T19:31:20;15.40;;;8.43;;
16430;SDS011;8325;49.284;7.238;2023-04-25T19:35:31;13.65;;;7.80;;
16430;SDS011;8325;49.284;7.238;2023-04-25T19:39:43;16.70;;;13.50;;
16430;SDS011;8325;49.284;7.238;2023-04-25T19:43:57;9.85;;;6.78;;
16430;SDS011;8325;49.284;7.238;2023-04-25T19:48:14;11.00;;;7.07;;
16430;SDS011;8325;49.284;7.238;2023-04-25T19:52:27;13.30;;;9.07;;
16430;SDS011;8325;49.284;7.238;2023-04-25T19:56:38;19.50;;;13.50;;
16430;SDS011;8325;49.284;7.238;2023-04-25T20:00:50;18.55;;;13.98;;
16430;SDS011;8325;49.284;7.238;2023-04-25T20:05:02;19.05;;;12.63;;
16430;SDS011;8325;49.284;7.238;2023-04-25T20:09:15;19.05;;;9.40;;
16430;SDS011;8325;49.284;7.238;2023-04-25T20:13:28;7.63;;;5.10;;
16430;SDS011;8325;49.284;7.238;2023-04-25T20:17:40;7.43;;;4.75;;
16430;SDS011;8325;49.284;7.238;2023-04-25T20:21:52;4.22;;;3.72;;
16430;SDS011;8325;49.284;7.238;2023-04-25T20:26:04;8.25;;;4.70;;
16430;SDS011;8325;49.284;7.238;2023-04-25T20:30:15;5.50;;;4.05;;
16430;SDS011;8325;49.284;7.238;2023-04-25T20:34:27;6.68;;;4.57;;
16430;SDS011;8325;49.284;7.238;2023-04-25T20:38:41;9.15;;;4.63;;
16430;SDS011;8325;49.284;7.238;2023-04-25T20:42:52;8.20;;;5.43;;
16430;SDS011;8325;49.284;7.238;2023-04-25T20:47:05;12.68;;;6.47;;
16430;SDS011;8325;49.284;7.238;2023-04-25T20:51:19;11.43;;;6.63;;
16430;SDS011;8325;49.284;7.238;2023-04-25T20:55:31;11.85;;;7.20;;
16430;SDS011;8325;49.284;7.238;2023-04-25T20:59:43;15.90;;;7.68;;
16430;SDS011;8325;49.284;7.238;2023-04-25T21:03:55;13.40;;;7.03;;
16430;SDS011;8325;49.284;7.238;2023-04-25T21:08:07;13.32;;;7.10;;
16430;SDS011;8325;49.284;7.238;2023-04-25T21:12:18;12.30;;;7.55;;
16430;SDS011;8325;49.284;7.238;2023-04-25T21:16:30;11.80;;;6.95;;
16430;SDS011;8325;49.284;7.238;2023-04-25T21:20:45;11.07;;;6.22;;
16430;SDS011;8325;49.284;7.238;2023-04-25T21:24:57;8.75;;;6.18;;
16430;SDS011;8325;49.284;7.238;2023-04-25T21:29:16;10.15;;;6.32;;
